sensor_id;sensor_type;location;lat;lon;timestamp;P1;durP1;ratioP1;P2;durP2;ratioP2
9801;SDS011;4940;50.900;4.672;2022-10-26T00:00:42;5.15;;;2.17;;
9801;SDS011;4940;50.900;4.672;2022-10-26T00:03:09;3.00;;;1.90;;
9801;SDS011;4940;50.900;4.672;2022-10-26T00:05:38;4.88;;;2.22;;
9801;SDS011;4940;50.900;4.672;2022-10-26T00:08:05;4.57;;;2.65;;
9801;SDS011;4940;50.900;4.672;2022-10-26T00:10:33;4.90;;;2.63;;
9801;SDS011;4940;50.900;4.672;2022-10-26T00:13:01;4.32;;;2.22;;
9801;SDS011;4940;50.900;4.672;2022-10-26T00:15:28;5.40;;;2.03;;
9801;SDS011;4940;50.900;4.672;2022-10-26T00:17:56;5.18;;;2.63;;
9801;SDS011;4940;50.900;4.672;2022-10-26T00:20:23;2.38;;;1.92;;
9801;SDS011;4940;50.900;4.672;2022-10-26T00:22:52;6.20;;;2.08;;
9801;SDS011;4940;50.900;4.672;2022-10-26T00:25:19;5.82;;;2.20;;
9801;SDS011;4940;50.900;4.672;2022-10-26T00:27:46;3.47;;;2.00;;
9801;SDS011;4940;50.900;4.672;2022-10-26T00:30:14;2.63;;;1.90;;
9801;SDS011;4940;50.900;4.672;2022-10-26T00:32:41;7.07;;;2.42;;
9801;SDS011;4940;50.900;4.672;2022-10-26T00:35:08;5.35;;;2.28;;
9801;SDS011;4940;50.900;4.672;2022-10-26T00:37:36;4.45;;;2.17;;
9801;SDS011;4940;50.900;4.672;2022-10-26T00:40:05;3.50;;;2.10;;
9801;SDS011;4940;50.900;4.672;2022-10-26T00:42:32;3.17;;;2.10;;
9801;SDS011;4940;50.900;4.672;2022-10-26T00:45:01;5.10;;;2.20;;
9801;SDS011;4940;50.900;4.672;2022-10-26T00:47:37;4.00;;;2.40;;
9801;SDS011;4940;50.900;4.672;2022-10-26T00:50:08;5.88;;;2.40;;
9801;SDS011;4940;50.900;4.672;2022-10-26T00:52:38;3.10;;;1.85;;
9801;SDS011;4940;50.900;4.672;2022-10-26T00:55:07;4.55;;;2.10;;
9801;SDS011;4940;50.900;4.672;2022-10-26T00:57:35;6.43;;;2.53;;
9801;SDS011;4940;50.900;4.672;2022-10-26T01:00:03;8.57;;;2.30;;
9801;SDS011;4940;50.900;4.672;2022-10-26T01:02:31;3.60;;;2.05;;
9801;SDS011;4940;50.900;4.672;2022-10-26T01:04:59;5.03;;;2.80;;
9801;SDS011;4940;50.900;4.672;2022-10-26T01:07:28;5.10;;;2.50;;
9801;SDS011;4940;50.900;4.672;2022-10-26T01:09:56;4.28;;;2.40;;
9801;SDS011;4940;50.900;4.672;2022-10-26T01:12:24;4.85;;;2.33;;
9801;SDS011;4940;50.900;4.672;2022-10-26T01:14:51;5.13;;;2.28;;
9801;SDS011;4940;50.900;4.672;2022-10-26T01:17:26;5.65;;;2.85;;
9801;SDS011;4940;50.900;4.672;2022-10-26T01:23:01;7.38;;;2.95;;
9801;SDS011;4940;50.900;4.672;2022-10-26T01:25:38;4.90;;;2.17;;
9801;SDS011;4940;50.900;4.672;2022-10-26T01:28:23;4.43;;;2.22;;
9801;SDS011;4940;50.900;4.672;2022-10-26T01:31:04;5.95;;;2.50;;
9801;SDS011;4940;50.900;4.672;2022-10-26T01:33:37;4.38;;;2.35;;
9801;SDS011;4940;50.900;4.672;2022-10-26T01:36:09;3.65;;;2.40;;
9801;SDS011;4940;50.900;4.672;2022-10-26T01:38:41;5.07;;;2.40;;
9801;SDS011;4940;50.900;4.672;2022-10-26T01:41:19;8.00;;;2.50;;
9801;SDS011;4940;50.900;4.672;2022-10-26T01:43:51;4.78;;;2.53;;
9801;SDS011;4940;50.900;4.672;2022-10-26T01:46:23;5.43;;;2.45;;
9801;SDS011;4940;50.900;4.672;2022-10-26T01:48:53;4.18;;;2.22;;
9801;SDS011;4940;50.900;4.672;2022-10-26T01:51:24;4.90;;;2.30;;
9801;SDS011;4940;50.900;4.672;2022-10-26T01:53:52;6.90;;;2.40;;
9801;SDS011;4940;50.900;4.672;2022-10-26T01:56:20;5.68;;;2.55;;
9801;SDS011;4940;50.900;4.672;2022-10-26T01:58:54;3.60;;;2.00;;
9801;SDS011;4940;50.900;4.672;2022-10-26T02:01:34;5.13;;;2.17;;
9801;SDS011;4940;50.900;4.672;2022-10-26T02:04:18;4.90;;;2.63;;
9801;SDS011;4940;50.900;4.672;2022-10-26T02:06:56;5.07;;;2.20;;
9801;SDS011;4940;50.900;4.672;2022-10-26T02:09:31;4.72;;;2.38;;
9801;SDS011;4940;50.900;4.672;2022-10-26T02:12:05;7.45;;;2.20;;
9801;SDS011;4940;50.900;4.672;2022-10-26T02:14:44;3.70;;;1.98;;
9801;SDS011;4940;50.900;4.672;2022-10-26T02:17:17;4.32;;;2.13;;
9801;SDS011;4940;50.900;4.672;2022-10-26T02:19:50;5.07;;;2.20;;
9801;SDS011;4940;50.900;4.672;2022-10-26T02:22:20;4.80;;;2.15;;
9801;SDS011;4940;50.900;4.672;2022-10-26T02:24:53;4.18;;;2.22;;
9801;SDS011;4940;50.900;4.672;2022-10-26T02:27:24;4.75;;;2.00;;
9801;SDS011;4940;50.900;4.672;2022-10-26T02:29:54;3.05;;;2.20;;
9801;SDS011;4940;50.900;4.672;2022-10-26T02:32:25;4.57;;;2.05;;
9801;SDS011;4940;50.900;4.672;2022-10-26T02:34:55;5.60;;;1.83;;
9801;SDS011;4940;50.900;4.672;2022-10-26T02:37:25;5.78;;;2.22;;
9801;SDS011;4940;50.900;4.672;2022-10-26T02:39:53;5.18;;;1.75;;
9801;SDS011;4940;50.900;4.672;2022-10-26T02:42:23;7.22;;;2.13;;
9801;SDS011;4940;50.900;4.672;2022-10-26T02:44:52;3.97;;;1.77;;
9801;SDS011;4940;50.900;4.672;2022-10-26T02:47:22;4.18;;;1.80;;
9801;SDS011;4940;50.900;4.672;2022-10-26T02:49:51;2.33;;;1.80;;
9801;SDS011;4940;50.900;4.672;2022-10-26T02:52:22;4.93;;;1.85;;
9801;SDS011;4940;50.900;4.672;2022-10-26T02:54:55;1.88;;;1.35;;
9801;SDS011;4940;50.900;4.672;2022-10-26T02:57:28;2.53;;;1.40;;
9801;SDS011;4940;50.900;4.672;2022-10-26T03:00:04;4.57;;;1.70;;
9801;SDS011;4940;50.900;4.672;2022-10-26T03:02:33;4.22;;;1.60;;
9801;SDS011;4940;50.900;4.672;2022-10-26T03:05:05;3.40;;;1.40;;
9801;SDS011;4940;50.900;4.672;2022-10-26T03:07:36;2.33;;;1.42;;
9801;SDS011;4940;50.900;4.672;2022-10-26T03:10:04;4.00;;;1.42;;
9801;SDS011;4940;50.900;4.672;2022-10-26T03:12:32;2.63;;;1.20;;
9801;SDS011;4940;50.900;4.672;2022-10-26T03:14:59;5.63;;;1.45;;
9801;SDS011;4940;50.900;4.672;2022-10-26T03:17:26;6.10;;;1.70;;
9801;SDS011;4940;50.900;4.672;2022-10-26T03:19:55;2.17;;;1.10;;
9801;SDS011;4940;50.900;4.672;2022-10-26T03:22:22;1.88;;;1.30;;
9801;SDS011;4940;50.900;4.672;2022-10-26T03:24:49;2.15;;;1.15;;
9801;SDS011;4940;50.900;4.672;2022-10-26T03:27:17;1.55;;;1.00;;
9801;SDS011;4940;50.900;4.672;2022-10-26T03:29:44;2.97;;;1.20;;
9801;SDS011;4940;50.900;4.672;2022-10-26T03:32:12;5.75;;;1.55;;
9801;SDS011;4940;50.900;4.672;2022-10-26T03:34:39;2.50;;;1.40;;
9801;SDS011;4940;50.900;4.672;2022-10-26T03:37:08;2.22;;;1.10;;
9801;SDS011;4940;50.900;4.672;2022-10-26T03:39:35;2.92;;;1.20;;
9801;SDS011;4940;50.900;4.672;2022-10-26T03:42:02;2.53;;;1.10;;
9801;SDS011;4940;50.900;4.672;2022-10-26T03:44:29;2.90;;;1.13;;
9801;SDS011;4940;50.900;4.672;2022-10-26T03:46:57;2.83;;;1.02;;
9801;SDS011;4940;50.900;4.672;2022-10-26T03:49:24;2.17;;;1.10;;
9801;SDS011;4940;50.900;4.672;2022-10-26T03:51:51;1.75;;;1.17;;
9801;SDS011;4940;50.900;4.672;2022-10-26T03:54:20;2.83;;;1.10;;
9801;SDS011;4940;50.900;4.672;2022-10-26T03:56:47;5.50;;;1.20;;
9801;SDS011;4940;50.900;4.672;2022-10-26T03:59:14;1.90;;;1.17;;
9801;SDS011;4940;50.900;4.672;2022-10-26T04:01:42;2.40;;;0.95;;
9801;SDS011;4940;50.900;4.672;2022-10-26T04:04:09;2.00;;;1.00;;
9801;SDS011;4940;50.900;4.672;2022-10-26T04:06:36;1.75;;;1.10;;
9801;SDS011;4940;50.900;4.672;2022-10-26T04:09:03;1.27;;;0.98;;
9801;SDS011;4940;50.900;4.672;2022-10-26T04:11:33;2.03;;;1.10;;
9801;SDS011;4940;50.900;4.672;2022-10-26T04:14:00;1.48;;;0.95;;
9801;SDS011;4940;50.900;4.672;2022-10-26T04:16:28;1.45;;;1.20;;
9801;SDS011;4940;50.900;4.672;2022-10-26T04:18:55;1.58;;;1.00;;
9801;SDS011;4940;50.900;4.672;2022-10-26T04:21:23;1.67;;;1.13;;
9801;SDS011;4940;50.900;4.672;2022-10-26T04:23:50;1.13;;;0.98;;
9801;SDS011;4940;50.900;4.672;2022-10-26T04:26:17;3.38;;;1.15;;
9801;SDS011;4940;50.900;4.672;2022-10-26T04:28:46;3.80;;;1.30;;
9801;SDS011;4940;50.900;4.672;2022-10-26T04:31:13;4.38;;;1.15;;
9801;SDS011;4940;50.900;4.672;2022-10-26T04:33:41;3.80;;;1.10;;
9801;SDS011;4940;50.900;4.672;2022-10-26T04:36:08;1.75;;;1.05;;
9801;SDS011;4940;50.900;4.672;2022-10-26T04:38:35;1.60;;;1.10;;
9801;SDS011;4940;50.900;4.672;2022-10-26T04:41:03;3.72;;;1.10;;
9801;SDS011;4940;50.900;4.672;2022-10-26T04:43:30;2.92;;;1.77;;
9801;SDS011;4940;50.900;4.672;2022-10-26T04:45:59;2.13;;;1.20;;
9801;SDS011;4940;50.900;4.672;2022-10-26T04:48:26;4.60;;;1.50;;
9801;SDS011;4940;50.900;4.672;2022-10-26T04:50:53;1.42;;;1.33;;
9801;SDS011;4940;50.900;4.672;2022-10-26T04:53:23;2.08;;;1.20;;
9801;SDS011;4940;50.900;4.672;2022-10-26T04:55:54;2.90;;;1.13;;
9801;SDS011;4940;50.900;4.672;2022-10-26T04:58:22;5.13;;;1.50;;
9801;SDS011;4940;50.900;4.672;2022-10-26T05:00:49;2.17;;;1.33;;
9801;SDS011;4940;50.900;4.672;2022-10-26T05:03:18;2.25;;;1.25;;
9801;SDS011;4940;50.900;4.672;2022-10-26T05:05:45;2.20;;;1.33;;
9801;SDS011;4940;50.900;4.672;2022-10-26T05:08:13;3.55;;;1.20;;
9801;SDS011;4940;50.900;4.672;2022-10-26T05:10:40;2.50;;;1.40;;
9801;SDS011;4940;50.900;4.672;2022-10-26T05:13:07;4.55;;;1.40;;
9801;SDS011;4940;50.900;4.672;2022-10-26T05:15:36;2.92;;;1.45;;
9801;SDS011;4940;50.900;4.672;2022-10-26T05:18:03;1.80;;;1.40;;
9801;SDS011;4940;50.900;4.672;2022-10-26T05:20:34;2.72;;;1.48;;
9801;SDS011;4940;50.900;4.672;2022-10-26T05:23:02;4.95;;;1.50;;
9801;SDS011;4940;50.900;4.672;2022-10-26T05:25:32;2.30;;;1.20;;
9801;SDS011;4940;50.900;4.672;2022-10-26T05:28:01;2.22;;;1.50;;
9801;SDS011;4940;50.900;4.672;2022-10-26T05:30:30;3.20;;;1.70;;
9801;SDS011;4940;50.900;4.672;2022-10-26T05:32:57;1.90;;;1.30;;
9801;SDS011;4940;50.900;4.672;2022-10-26T05:35:26;2.78;;;1.48;;
9801;SDS011;4940;50.900;4.672;2022-10-26T05:37:55;6.13;;;1.70;;
9801;SDS011;4940;50.900;4.672;2022-10-26T05:40:22;3.03;;;1.30;;
9801;SDS011;4940;50.900;4.672;2022-10-26T05:42:49;1.73;;;1.30;;
9801;SDS011;4940;50.900;4.672;2022-10-26T05:45:17;3.47;;;1.65;;
9801;SDS011;4940;50.900;4.672;2022-10-26T05:47:44;5.07;;;1.60;;
9801;SDS011;4940;50.900;4.672;2022-10-26T05:50:11;3.70;;;1.23;;
9801;SDS011;4940;50.900;4.672;2022-10-26T05:52:39;4.25;;;1.35;;
9801;SDS011;4940;50.900;4.672;2022-10-26T05:55:08;3.35;;;1.52;;
9801;SDS011;4940;50.900;4.672;2022-10-26T05:57:37;4.03;;;1.42;;
9801;SDS011;4940;50.900;4.672;2022-10-26T06:00:06;3.75;;;1.52;;
9801;SDS011;4940;50.900;4.672;2022-10-26T06:02:36;2.30;;;1.40;;
9801;SDS011;4940;50.900;4.672;2022-10-26T06:05:14;6.32;;;1.50;;
9801;SDS011;4940;50.900;4.672;2022-10-26T06:07:47;6.00;;;1.60;;
9801;SDS011;4940;50.900;4.672;2022-10-26T06:10:17;7.20;;;1.70;;
9801;SDS011;4940;50.900;4.672;2022-10-26T06:12:44;3.60;;;1.50;;
9801;SDS011;4940;50.900;4.672;2022-10-26T06:15:12;4.38;;;1.63;;
9801;SDS011;4940;50.900;4.672;2022-10-26T06:17:46;4.13;;;1.42;;
9801;SDS011;4940;50.900;4.672;2022-10-26T06:20:24;4.55;;;1.55;;
9801;SDS011;4940;50.900;4.672;2022-10-26T06:23:15;2.45;;;1.50;;
9801;SDS011;4940;50.900;4.672;2022-10-26T06:26:00;3.40;;;1.55;;
9801;SDS011;4940;50.900;4.672;2022-10-26T06:28:33;2.05;;;1.50;;
9801;SDS011;4940;50.900;4.672;2022-10-26T06:31:08;3.17;;;1.50;;
9801;SDS011;4940;50.900;4.672;2022-10-26T06:33:36;2.92;;;1.58;;
9801;SDS011;4940;50.900;4.672;2022-10-26T06:36:06;2.75;;;1.48;;
9801;SDS011;4940;50.900;4.672;2022-10-26T06:38:45;3.30;;;1.58;;
9801;SDS011;4940;50.900;4.672;2022-10-26T06:41:15;1.30;;;1.20;;
9801;SDS011;4940;50.900;4.672;2022-10-26T06:43:44;2.63;;;1.70;;
9801;SDS011;4940;50.900;4.672;2022-10-26T06:46:13;4.13;;;1.70;;
9801;SDS011;4940;50.900;4.672;2022-10-26T06:48:49;4.00;;;1.70;;
9801;SDS011;4940;50.900;4.672;2022-10-26T06:51:21;4.47;;;1.63;;
9801;SDS011;4940;50.900;4.672;2022-10-26T06:53:52;2.35;;;1.30;;
9801;SDS011;4940;50.900;4.672;2022-10-26T06:56:25;3.08;;;1.75;;
9801;SDS011;4940;50.900;4.672;2022-10-26T06:58:52;4.00;;;1.75;;
9801;SDS011;4940;50.900;4.672;2022-10-26T07:01:21;3.08;;;1.60;;
9801;SDS011;4940;50.900;4.672;2022-10-26T07:03:48;2.17;;;1.60;;
9801;SDS011;4940;50.900;4.672;2022-10-26T07:06:16;3.10;;;1.67;;
9801;SDS011;4940;50.900;4.672;2022-10-26T07:08:43;3.35;;;1.60;;
9801;SDS011;4940;50.900;4.672;2022-10-26T07:11:10;2.80;;;1.63;;
9801;SDS011;4940;50.900;4.672;2022-10-26T07:13:39;2.97;;;1.80;;
9801;SDS011;4940;50.900;4.672;2022-10-26T07:16:06;4.18;;;1.90;;
9801;SDS011;4940;50.900;4.672;2022-10-26T07:18:34;4.75;;;1.80;;
9801;SDS011;4940;50.900;4.672;2022-10-26T07:21:01;4.53;;;1.63;;
9801;SDS011;4940;50.900;4.672;2022-10-26T07:23:28;4.18;;;1.73;;
9801;SDS011;4940;50.900;4.672;2022-10-26T07:25:57;5.55;;;1.70;;
9801;SDS011;4940;50.900;4.672;2022-10-26T07:28:25;4.85;;;1.67;;
9801;SDS011;4940;50.900;4.672;2022-10-26T07:30:53;2.70;;;1.50;;
9801;SDS011;4940;50.900;4.672;2022-10-26T07:33:23;4.05;;;1.83;;
9801;SDS011;4940;50.900;4.672;2022-10-26T07:35:50;4.28;;;1.75;;
9801;SDS011;4940;50.900;4.672;2022-10-26T07:38:19;2.40;;;1.73;;
9801;SDS011;4940;50.900;4.672;2022-10-26T07:40:47;4.70;;;1.80;;
9801;SDS011;4940;50.900;4.672;2022-10-26T07:43:18;3.72;;;1.98;;
9801;SDS011;4940;50.900;4.672;2022-10-26T07:45:47;4.82;;;2.00;;
9801;SDS011;4940;50.900;4.672;2022-10-26T07:48:17;4.38;;;1.70;;
9801;SDS011;4940;50.900;4.672;2022-10-26T07:50:44;4.30;;;2.00;;
9801;SDS011;4940;50.900;4.672;2022-10-26T07:53:11;3.90;;;2.10;;
9801;SDS011;4940;50.900;4.672;2022-10-26T07:58:15;3.80;;;1.85;;
9801;SDS011;4940;50.900;4.672;2022-10-26T08:01:04;5.63;;;2.35;;
9801;SDS011;4940;50.900;4.672;2022-10-26T08:03:50;3.80;;;1.60;;
9801;SDS011;4940;50.900;4.672;2022-10-26T08:06:32;5.38;;;2.22;;
9801;SDS011;4940;50.900;4.672;2022-10-26T08:09:11;3.63;;;1.90;;
9801;SDS011;4940;50.900;4.672;2022-10-26T08:11:49;3.55;;;2.00;;
9801;SDS011;4940;50.900;4.672;2022-10-26T08:14:29;3.90;;;2.03;;
9801;SDS011;4940;50.900;4.672;2022-10-26T08:17:08;3.30;;;1.95;;
9801;SDS011;4940;50.900;4.672;2022-10-26T08:22:54;5.00;;;2.28;;
9801;SDS011;4940;50.900;4.672;2022-10-26T08:25:34;2.55;;;1.77;;
9801;SDS011;4940;50.900;4.672;2022-10-26T08:28:13;5.00;;;1.60;;
9801;SDS011;4940;50.900;4.672;2022-10-26T08:30:52;2.58;;;1.77;;
9801;SDS011;4940;50.900;4.672;2022-10-26T08:33:31;4.38;;;1.80;;
9801;SDS011;4940;50.900;4.672;2022-10-26T08:36:22;4.15;;;1.77;;
9801;SDS011;4940;50.900;4.672;2022-10-26T08:39:13;3.13;;;1.70;;
9801;SDS011;4940;50.900;4.672;2022-10-26T08:41:53;3.75;;;1.70;;
9801;SDS011;4940;50.900;4.672;2022-10-26T08:44:48;4.03;;;1.60;;
9801;SDS011;4940;50.900;4.672;2022-10-26T08:47:34;3.05;;;1.83;;
9801;SDS011;4940;50.900;4.672;2022-10-26T08:50:26;4.20;;;1.77;;
9801;SDS011;4940;50.900;4.672;2022-10-26T09:02:40;3.17;;;1.90;;
9801;SDS011;4940;50.900;4.672;2022-10-26T09:05:37;2.80;;;1.35;;
9801;SDS011;4940;50.900;4.672;2022-10-26T09:08:28;1.83;;;1.20;;
9801;SDS011;4940;50.900;4.672;2022-10-26T09:11:27;4.13;;;1.25;;
9801;SDS011;4940;50.900;4.672;2022-10-26T09:14:25;3.72;;;1.40;;
9801;SDS011;4940;50.900;4.672;2022-10-26T09:17:17;5.00;;;1.35;;
9801;SDS011;4940;50.900;4.672;2022-10-26T09:20:23;4.05;;;1.50;;
9801;SDS011;4940;50.900;4.672;2022-10-26T09:23:36;1.73;;;1.20;;
9801;SDS011;4940;50.900;4.672;2022-10-26T09:26:27;2.60;;;1.30;;
9801;SDS011;4940;50.900;4.672;2022-10-26T09:29:18;3.65;;;1.40;;
9801;SDS011;4940;50.900;4.672;2022-10-26T09:32:03;2.65;;;1.30;;
9801;SDS011;4940;50.900;4.672;2022-10-26T09:34:50;2.38;;;1.30;;
9801;SDS011;4940;50.900;4.672;2022-10-26T09:50:15;3.17;;;1.40;;
9801;SDS011;4940;50.900;4.672;2022-10-26T09:52:58;2.75;;;1.08;;
9801;SDS011;4940;50.900;4.672;2022-10-26T09:55:37;4.35;;;1.17;;
9801;SDS011;4940;50.900;4.672;2022-10-26T09:58:24;7.57;;;1.40;;
9801;SDS011;4940;50.900;4.672;2022-10-26T10:01:20;2.60;;;1.17;;
9801;SDS011;4940;50.900;4.672;2022-10-26T10:07:11;2.75;;;1.40;;
9801;SDS011;4940;50.900;4.672;2022-10-26T10:10:04;4.20;;;1.48;;
9801;SDS011;4940;50.900;4.672;2022-10-26T10:12:59;3.42;;;1.20;;
9801;SDS011;4940;50.900;4.672;2022-10-26T10:16:00;2.85;;;1.40;;
9801;SDS011;4940;50.900;4.672;2022-10-26T10:18:53;3.78;;;1.15;;
9801;SDS011;4940;50.900;4.672;2022-10-26T10:27:58;6.80;;;1.27;;
9801;SDS011;4940;50.900;4.672;2022-10-26T10:30:59;3.13;;;1.20;;
9801;SDS011;4940;50.900;4.672;2022-10-26T10:33:40;3.67;;;1.38;;
9801;SDS011;4940;50.900;4.672;2022-10-26T10:36:22;2.72;;;1.38;;
9801;SDS011;4940;50.900;4.672;2022-10-26T10:39:03;6.50;;;1.90;;
9801;SDS011;4940;50.900;4.672;2022-10-26T10:42:20;2.60;;;1.23;;
9801;SDS011;4940;50.900;4.672;2022-10-26T10:45:20;2.05;;;1.23;;
9801;SDS011;4940;50.900;4.672;2022-10-26T10:48:16;2.10;;;0.93;;
9801;SDS011;4940;50.900;4.672;2022-10-26T10:51:02;3.17;;;1.30;;
9801;SDS011;4940;50.900;4.672;2022-10-26T10:53:47;2.38;;;1.23;;
9801;SDS011;4940;50.900;4.672;2022-10-26T10:56:39;3.20;;;1.08;;
9801;SDS011;4940;50.900;4.672;2022-10-26T10:59:44;3.20;;;1.20;;
9801;SDS011;4940;50.900;4.672;2022-10-26T11:05:49;2.15;;;1.20;;
9801;SDS011;4940;50.900;4.672;2022-10-26T11:08:41;4.07;;;1.30;;
9801;SDS011;4940;50.900;4.672;2022-10-26T11:11:30;2.67;;;1.60;;
9801;SDS011;4940;50.900;4.672;2022-10-26T11:14:21;3.85;;;1.33;;
9801;SDS011;4940;50.900;4.672;2022-10-26T11:17:10;2.53;;;1.13;;
9801;SDS011;4940;50.900;4.672;2022-10-26T11:20:09;2.03;;;1.13;;
9801;SDS011;4940;50.900;4.672;2022-10-26T11:23:04;3.65;;;1.35;;
9801;SDS011;4940;50.900;4.672;2022-10-26T11:25:49;1.63;;;1.20;;
9801;SDS011;4940;50.900;4.672;2022-10-26T11:28:43;2.17;;;1.20;;
9801;SDS011;4940;50.900;4.672;2022-10-26T11:31:30;1.58;;;1.10;;
9801;SDS011;4940;50.900;4.672;2022-10-26T11:34:15;4.85;;;0.95;;
9801;SDS011;4940;50.900;4.672;2022-10-26T11:40:17;2.75;;;1.30;;
9801;SDS011;4940;50.900;4.672;2022-10-26T11:43:29;4.82;;;1.15;;
9801;SDS011;4940;50.900;4.672;2022-10-26T11:46:27;1.48;;;0.98;;
9801;SDS011;4940;50.900;4.672;2022-10-26T11:49:16;3.75;;;1.25;;
9801;SDS011;4940;50.900;4.672;2022-10-26T11:52:07;3.25;;;1.40;;
9801;SDS011;4940;50.900;4.672;2022-10-26T11:58:12;2.70;;;1.05;;
9801;SDS011;4940;50.900;4.672;2022-10-26T12:00:52;3.83;;;1.35;;
9801;SDS011;4940;50.900;4.672;2022-10-26T12:03:36;2.67;;;1.25;;
9801;SDS011;4940;50.900;4.672;2022-10-26T12:06:26;1.70;;;1.10;;
9801;SDS011;4940;50.900;4.672;2022-10-26T12:09:12;6.53;;;1.40;;
9801;SDS011;4940;50.900;4.672;2022-10-26T12:15:13;3.78;;;1.17;;
9801;SDS011;4940;50.900;4.672;2022-10-26T12:18:04;2.40;;;0.93;;
9801;SDS011;4940;50.900;4.672;2022-10-26T12:21:03;2.25;;;1.17;;
9801;SDS011;4940;50.900;4.672;2022-10-26T12:23:53;1.20;;;0.88;;
9801;SDS011;4940;50.900;4.672;2022-10-26T12:26:46;2.85;;;1.02;;
9801;SDS011;4940;50.900;4.672;2022-10-26T12:29:43;2.83;;;1.33;;
9801;SDS011;4940;50.900;4.672;2022-10-26T12:36:09;2.35;;;0.90;;
9801;SDS011;4940;50.900;4.672;2022-10-26T12:39:34;6.38;;;1.10;;
9801;SDS011;4940;50.900;4.672;2022-10-26T12:42:28;9.13;;;1.10;;
9801;SDS011;4940;50.900;4.672;2022-10-26T12:45:18;4.80;;;1.40;;
9801;SDS011;4940;50.900;4.672;2022-10-26T12:48:19;2.67;;;1.20;;
9801;SDS011;4940;50.900;4.672;2022-10-26T13:00:40;1.98;;;1.10;;
9801;SDS011;4940;50.900;4.672;2022-10-26T13:03:29;1.83;;;1.05;;
9801;SDS011;4940;50.900;4.672;2022-10-26T13:09:22;1.00;;;0.90;;
9801;SDS011;4940;50.900;4.672;2022-10-26T13:12:03;3.00;;;1.23;;
9801;SDS011;4940;50.900;4.672;2022-10-26T13:14:50;3.13;;;1.00;;
9801;SDS011;4940;50.900;4.672;2022-10-26T13:17:57;2.17;;;1.05;;
9801;SDS011;4940;50.900;4.672;2022-10-26T13:20:57;3.63;;;1.20;;
9801;SDS011;4940;50.900;4.672;2022-10-26T13:23:47;3.10;;;1.23;;
9801;SDS011;4940;50.900;4.672;2022-10-26T13:33:51;3.83;;;1.13;;
9801;SDS011;4940;50.900;4.672;2022-10-26T13:36:39;2.45;;;1.20;;
9801;SDS011;4940;50.900;4.672;2022-10-26T13:39:37;3.47;;;1.10;;
9801;SDS011;4940;50.900;4.672;2022-10-26T13:42:18;1.98;;;1.00;;
9801;SDS011;4940;50.900;4.672;2022-10-26T13:45:01;3.10;;;1.13;;
9801;SDS011;4940;50.900;4.672;2022-10-26T13:47:51;1.85;;;1.00;;
9801;SDS011;4940;50.900;4.672;2022-10-26T13:57:20;3.50;;;0.80;;
9801;SDS011;4940;50.900;4.672;2022-10-26T14:00:19;1.23;;;1.10;;
9801;SDS011;4940;50.900;4.672;2022-10-26T14:02:59;5.70;;;0.98;;
9801;SDS011;4940;50.900;4.672;2022-10-26T14:05:49;1.67;;;0.98;;
9801;SDS011;4940;50.900;4.672;2022-10-26T14:08:28;3.38;;;1.00;;
9801;SDS011;4940;50.900;4.672;2022-10-26T14:11:13;2.67;;;1.15;;
9801;SDS011;4940;50.900;4.672;2022-10-26T14:13:57;2.15;;;0.90;;
9801;SDS011;4940;50.900;4.672;2022-10-26T14:16:37;1.67;;;0.75;;
9801;SDS011;4940;50.900;4.672;2022-10-26T14:19:25;3.42;;;0.90;;
9801;SDS011;4940;50.900;4.672;2022-10-26T14:22:14;2.22;;;1.08;;
9801;SDS011;4940;50.900;4.672;2022-10-26T14:25:16;2.35;;;1.10;;
9801;SDS011;4940;50.900;4.672;2022-10-26T14:28:15;1.77;;;0.95;;
9801;SDS011;4940;50.900;4.672;2022-10-26T14:31:19;3.40;;;1.08;;
9801;SDS011;4940;50.900;4.672;2022-10-26T14:34:08;2.63;;;0.93;;
9801;SDS011;4940;50.900;4.672;2022-10-26T14:36:51;2.20;;;1.00;;
9801;SDS011;4940;50.900;4.672;2022-10-26T14:39:34;4.03;;;1.17;;
9801;SDS011;4940;50.900;4.672;2022-10-26T14:42:24;2.30;;;0.90;;
9801;SDS011;4940;50.900;4.672;2022-10-26T14:45:17;1.70;;;1.02;;
9801;SDS011;4940;50.900;4.672;2022-10-26T14:48:03;2.72;;;1.10;;
9801;SDS011;4940;50.900;4.672;2022-10-26T14:50:43;1.55;;;0.98;;
9801;SDS011;4940;50.900;4.672;2022-10-26T14:53:46;2.58;;;1.10;;
9801;SDS011;4940;50.900;4.672;2022-10-26T14:56:38;1.33;;;0.95;;
9801;SDS011;4940;50.900;4.672;2022-10-26T14:59:22;2.58;;;1.27;;
9801;SDS011;4940;50.900;4.672;2022-10-26T15:08:43;3.05;;;1.10;;
9801;SDS011;4940;50.900;4.672;2022-10-26T15:11:34;1.63;;;1.20;;
9801;SDS011;4940;50.900;4.672;2022-10-26T15:14:19;3.25;;;1.20;;
9801;SDS011;4940;50.900;4.672;2022-10-26T15:16:59;2.88;;;0.95;;
9801;SDS011;4940;50.900;4.672;2022-10-26T15:19:29;2.38;;;1.00;;
9801;SDS011;4940;50.900;4.672;2022-10-26T15:22:22;3.15;;;1.10;;
9801;SDS011;4940;50.900;4.672;2022-10-26T15:25:05;2.92;;;0.90;;
9801;SDS011;4940;50.900;4.672;2022-10-26T15:27:53;5.32;;;0.95;;
9801;SDS011;4940;50.900;4.672;2022-10-26T15:30:57;3.80;;;1.00;;
9801;SDS011;4940;50.900;4.672;2022-10-26T15:33:39;1.05;;;0.90;;
9801;SDS011;4940;50.900;4.672;2022-10-26T15:36:18;3.03;;;1.05;;
9801;SDS011;4940;50.900;4.672;2022-10-26T15:39:06;4.82;;;1.45;;
9801;SDS011;4940;50.900;4.672;2022-10-26T15:41:48;2.20;;;0.93;;
9801;SDS011;4940;50.900;4.672;2022-10-26T15:44:30;2.47;;;0.98;;
9801;SDS011;4940;50.900;4.672;2022-10-26T15:47:15;3.90;;;1.20;;
9801;SDS011;4940;50.900;4.672;2022-10-26T15:50:01;3.17;;;1.23;;
9801;SDS011;4940;50.900;4.672;2022-10-26T15:52:42;5.07;;;1.17;;
9801;SDS011;4940;50.900;4.672;2022-10-26T15:55:30;2.90;;;1.10;;
9801;SDS011;4940;50.900;4.672;2022-10-26T15:58:17;3.38;;;1.10;;
9801;SDS011;4940;50.900;4.672;2022-10-26T16:01:13;1.73;;;1.00;;
9801;SDS011;4940;50.900;4.672;2022-10-26T16:03:53;3.33;;;1.17;;
9801;SDS011;4940;50.900;4.672;2022-10-26T16:06:33;2.22;;;1.10;;
9801;SDS011;4940;50.900;4.672;2022-10-26T16:09:13;5.78;;;0.98;;
9801;SDS011;4940;50.900;4.672;2022-10-26T16:12:02;1.55;;;1.00;;
9801;SDS011;4940;50.900;4.672;2022-10-26T16:14:54;3.22;;;1.42;;
9801;SDS011;4940;50.900;4.672;2022-10-26T16:17:33;2.22;;;1.35;;
9801;SDS011;4940;50.900;4.672;2022-10-26T16:20:17;1.88;;;1.08;;
9801;SDS011;4940;50.900;4.672;2022-10-26T16:23:00;4.25;;;1.50;;
9801;SDS011;4940;50.900;4.672;2022-10-26T16:25:43;3.15;;;1.20;;
9801;SDS011;4940;50.900;4.672;2022-10-26T16:28:27;3.22;;;1.10;;
9801;SDS011;4940;50.900;4.672;2022-10-26T16:31:11;4.40;;;1.65;;
9801;SDS011;4940;50.900;4.672;2022-10-26T16:33:51;1.77;;;1.10;;
9801;SDS011;4940;50.900;4.672;2022-10-26T16:36:28;3.03;;;1.48;;
9801;SDS011;4940;50.900;4.672;2022-10-26T16:39:10;4.50;;;1.60;;
9801;SDS011;4940;50.900;4.672;2022-10-26T16:41:50;4.10;;;1.25;;
9801;SDS011;4940;50.900;4.672;2022-10-26T16:44:37;2.53;;;1.45;;
9801;SDS011;4940;50.900;4.672;2022-10-26T16:47:20;3.78;;;1.40;;
9801;SDS011;4940;50.900;4.672;2022-10-26T16:50:00;3.05;;;1.00;;
9801;SDS011;4940;50.900;4.672;2022-10-26T16:52:39;3.85;;;1.02;;
9801;SDS011;4940;50.900;4.672;2022-10-26T16:55:18;4.13;;;1.50;;
9801;SDS011;4940;50.900;4.672;2022-10-26T16:58:04;1.80;;;0.82;;
9801;SDS011;4940;50.900;4.672;2022-10-26T17:00:51;1.33;;;1.00;;
9801;SDS011;4940;50.900;4.672;2022-10-26T17:03:35;2.97;;;1.35;;
9801;SDS011;4940;50.900;4.672;2022-10-26T17:06:14;6.57;;;1.50;;
9801;SDS011;4940;50.900;4.672;2022-10-26T17:08:53;2.35;;;1.30;;
9801;SDS011;4940;50.900;4.672;2022-10-26T17:11:32;5.00;;;1.20;;
9801;SDS011;4940;50.900;4.672;2022-10-26T17:14:11;2.50;;;1.20;;
9801;SDS011;4940;50.900;4.672;2022-10-26T17:16:59;4.43;;;1.38;;
9801;SDS011;4940;50.900;4.672;2022-10-26T17:19:42;5.47;;;1.60;;
9801;SDS011;4940;50.900;4.672;2022-10-26T17:22:21;5.85;;;1.70;;
9801;SDS011;4940;50.900;4.672;2022-10-26T17:24:59;2.80;;;1.17;;
9801;SDS011;4940;50.900;4.672;2022-10-26T17:27:39;3.63;;;1.60;;
9801;SDS011;4940;50.900;4.672;2022-10-26T17:30:17;3.50;;;1.75;;
9801;SDS011;4940;50.900;4.672;2022-10-26T17:33:04;3.80;;;2.03;;
9801;SDS011;4940;50.900;4.672;2022-10-26T17:35:51;2.53;;;2.00;;
9801;SDS011;4940;50.900;4.672;2022-10-26T17:38:31;7.47;;;1.55;;
9801;SDS011;4940;50.900;4.672;2022-10-26T17:41:12;3.53;;;1.27;;
9801;SDS011;4940;50.900;4.672;2022-10-26T17:43:52;3.92;;;1.85;;
9801;SDS011;4940;50.900;4.672;2022-10-26T17:46:31;2.72;;;1.00;;
9801;SDS011;4940;50.900;4.672;2022-10-26T17:49:26;2.88;;;1.13;;
9801;SDS011;4940;50.900;4.672;2022-10-26T17:52:09;4.50;;;1.63;;
9801;SDS011;4940;50.900;4.672;2022-10-26T17:54:49;3.60;;;1.98;;